YWHA

Details ICAO YWHA (WYA)
Name Whyalla
Region Australia
Timezone Australia/Adelaide (UTC+9.5)
Plans Departing 9
Arriving 14
Stats Elevation 41 ft / 12 m (AMSL)
Location -33.057162° 137.515871°
Runways 2
Magnetic Variation 7.122° E
Sunrise 2018-05-22 21:40:01 UTC / 2018-05-23 07:10:01 Local
Sunset 2018-05-23 07:56:08 UTC / 2018-05-23 17:26:08 Local
Advertisement - Login to hide

Runways

ID Width Length Bearing (true) Bearing (mag) Surface Threshold Offset Overrun Length
05 164 ft / 50 m 4,659 ft / 1,420 m 54.36° 47.24° Dirt 0 ft / 0 m 0 ft / 0 m
17 164 ft / 50 m 5,540 ft / 1,689 m 174.30° 167.18° Asphalt 0 ft / 0 m 0 ft / 0 m
23 164 ft / 50 m 4,659 ft / 1,420 m 234.36° 227.24° Dirt 0 ft / 0 m 0 ft / 0 m
35 164 ft / 50 m 5,540 ft / 1,689 m 354.30° 347.18° Asphalt 0 ft / 0 m 0 ft / 0 m

Map

Weather


0- 5 10 15 20 25 30 35+ Temperature / ° C

Clouds and Precipitation
Forecast for 2018-05-23 12:00 UTC. Updated 2 hours ago

Ground ~20,000 ft ~40,000 ft Winds

METAR

YWHA 231300Z AUTO 15009KT 9999 // BKN048 15/09 Q1028

TAF

Not found

Frequencies

Unicom 126.90 MHz CTAF
Warning: Do not use this data for real-world aviation or navigation. No guarantee of current accuracy is given.